Anthem Of The Seas — C6BI7 — position and weather

sailwx.info

Track history (hours):
 
Tides and Currents Weather Stations Pressure Air Temp Water Temp Dewpoint Dewpoint Depression Visibility Wind Speed Wind Dir Waves Ship Positions

Anthem Of The Seas

Last reported at 2017-Aug-22 19:46 UTC. Time now 2017-Aug-23 13:37 UTC.
Position N 18°34' W 066°16'.

Length 348 m; draft 8.8 m.

Type: Passenger vessel. MMSI: 311000274.

Date/timePositionNaut miles runAvg speedWind from/ knotsBaromVisibWave heightAir tempDewpointWater temp
2017-Aug-22 19:46N 18°34' W 066°16'622.2
2017-Aug-22 19:31N 18°32' W 066°10'611.0
2017-Aug-22 19:00N 18°27' W 066°07'1 1.0
2017-Aug-22 18:29N 18°28' W 066°07'0 0.0
2017-Aug-22 17:59N 18°28' W 066°07'0 0.0
2017-Aug-22 17:29N 18°28' W 066°07'0 0.0
2017-Aug-22 16:59N 18°28' W 066°07'0 0.0
2017-Aug-22 16:26N 18°28' W 066°07'0 0.0
2017-Aug-22 15:56N 18°28' W 066°07'0 0.0
2017-Aug-22 15:29N 18°28' W 066°07'0 0.0
2017-Aug-22 14:59N 18°28' W 066°07'0 0.0
2017-Aug-22 14:28N 18°28' W 066°07'0 0.0
2017-Aug-22 13:58N 18°28' W 066°07'0 0.0
2017-Aug-22 13:28N 18°28' W 066°07'0 0.0
2017-Aug-22 13:00N 18°28' W 066°07'0 0.0
2017-Aug-22 12:30N 18°28' W 066°07'0 0.0
2017-Aug-22 12:00N 18°28' W 066°07'0 0.0
2017-Aug-22 11:30N 18°28' W 066°07'0 0.0
2017-Aug-22 11:00N 18°28' W 066°07'0 0.7
2017-Aug-22 10:30N 18°27' W 066°07'3 6.6
2017-Aug-22 10:00N 18°31' W 066°08'714.1
2017-Aug-22 09:30N 18°32' W 066°00'917.2
2017-Aug-22 09:00N 18°32' W 065°51'5417.3
2017-Aug-22 05:52N 18°13' W 064°58'718.4
2017-Aug-22 05:31N 18°12' W 064°51'1217.9
2017-Aug-22 04:52N 18°11' W 064°39'7018.5
2017-Aug-22 01:05N 18°02' W 063°25'220.8
2017-Aug-22 00:59N 18°02' W 063°23'1220.7
2017-Aug-22 00:24N 18°01' W 063°11'715.9
2017-Aug-21 23:56N 18°00' W 063°03'1 1.1
2017-Aug-21 23:25N 18°01' W 063°03'0 0.0
2017-Aug-21 22:37N 18°01' W 063°03'0 0.0
2017-Aug-21 21:25N 18°01' W 063°03'0 0.0
2017-Aug-21 19:01N 18°01' W 063°03'0 0.0
2017-Aug-21 18:43N 18°01' W 063°03'0 0.0
2017-Aug-21 16:25N 18°01' W 063°03'0 0.4
2017-Aug-21 15:47N 18°01' W 063°03'2 6.4
2017-Aug-21 15:30N 18°00' W 063°05'714.1
2017-Aug-21 15:01N 18°01' W 063°12'815.9
2017-Aug-21 14:30N 18°07' W 063°18'918.6
2017-Aug-21 14:00N 18°14' W 063°24'1020.2
2017-Aug-21 13:30N 18°23' W 063°28'3520.4
2017-Aug-21 11:48N 18°58' W 063°33'920.4
2017-Aug-21 11:23N 19°06' W 063°33'  
2017-Aug-18 03:31N 39°08' W 072°15'118.7
2017-Aug-18 03:28N 39°09' W 072°16'918.5
2017-Aug-18 03:00N 39°15' W 072°24'2618.6
2017-Aug-18 01:35N 39°35' W 072°47'118.7
2017-Aug-18 01:30N 39°36' W 072°48'918.6
2017-Aug-18 01:00N 39°42' W 072°57'919.0
2017-Aug-18 00:31N 39°49' W 073°05'918.7
2017-Aug-18 00:00N 39°56' W 073°14'918.4
2017-Aug-17 23:30N 40°02' W 073°22'918.2
2017-Aug-17 23:00N 40°09' W 073°30'1317.8
2017-Aug-17 22:15N 40°20' W 073°41'416.8
2017-Aug-17 22:00N 40°23' W 073°45'713.1
2017-Aug-17 21:30N 40°27' W 073°51'815.6
2017-Aug-17 21:01N 40°31' W 073°60'713.9
2017-Aug-17 20:30N 40°37' W 074°03'2 4.4
2017-Aug-17 19:56N 40°40' W 074°04'0 0.0
2017-Aug-17 19:26N 40°40' W 074°04'0 0.0
2017-Aug-17 18:56N 40°40' W 074°04'0 0.0
2017-Aug-17 18:26N 40°40' W 074°04'0 0.0
2017-Aug-17 17:56N 40°40' W 074°04'0 0.0
2017-Aug-17 17:26N 40°40' W 074°04'0 0.0
2017-Aug-17 16:56N 40°40' W 074°04'0 0.0
2017-Aug-17 16:26N 40°40' W 074°04'0 0.0
2017-Aug-17 15:56N 40°40' W 074°04'0 0.0
2017-Aug-17 15:26N 40°40' W 074°04'0 0.0
2017-Aug-17 14:56N 40°40' W 074°04'0 0.0
2017-Aug-17 14:26N 40°40' W 074°04'0 0.0
2017-Aug-17 13:56N 40°40' W 074°04'0 0.0
2017-Aug-17 13:26N 40°40' W 074°04'0 0.0
2017-Aug-17 12:56N 40°40' W 074°04'0 0.0
2017-Aug-17 12:26N 40°40' W 074°04'0 0.0
2017-Aug-17 11:56N 40°40' W 074°04'0 0.0
2017-Aug-17 11:26N 40°40' W 074°04'0 0.0
2017-Aug-17 11:00N 40°40' W 074°04'1 1.6
2017-Aug-17 10:30N 40°39' W 074°03'713.2
2017-Aug-17 10:00N 40°33' W 074°02'816.3
2017-Aug-17 09:31N 40°28' W 073°53'612.9
2017-Aug-17 09:00N 40°25' W 073°45'816.9
2017-Aug-17 08:30N 40°20' W 073°36'917.0
2017-Aug-17 08:00N 40°15' W 073°27'1020.3
2017-Aug-17 07:30N 40°09' W 073°17'1020.4
2017-Aug-17 07:01N 40°01' W 073°09'1021.0
2017-Aug-17 06:31N 39°51' W 073°04'1020.8
2017-Aug-17 06:01N 39°41' W 072°59'1020.7
2017-Aug-17 05:31N 39°32' W 072°54'1121.0
2017-Aug-17 05:00N 39°22' W 072°48'1121.2
2017-Aug-17 04:31N 39°12' W 072°43'1020.9
2017-Aug-17 04:01N 39°03' W 072°38'1120.9
2017-Aug-17 03:30N 38°53' W 072°32'1021.0
2017-Aug-17 03:00N 38°44' W 072°27'1223.1
2017-Aug-17 02:30N 38°33' W 072°21'  
2017-Aug-12 21:20N 40°27' W 073°49'514.8
2017-Aug-12 21:00N 40°29' W 073°55'816.0
2017-Aug-12 20:30N 40°35' W 074°02'510.1
2017-Aug-12 20:00N 40°40' W 074°04'  
Track history (hours):
 
Tides and Currents Weather Stations Pressure Air Temp Water Temp Dewpoint Dewpoint Depression Visibility Wind Speed Wind Dir Waves Ship Positions

Anthem Of The Seas

Last reported at 2017-Aug-22 19:46 UTC. Time now 2017-Aug-23 13:37 UTC.
Position N 18°34' W 066°16'.

Length 348 m; draft 8.8 m.

Type: Passenger vessel. MMSI: 311000274.

Date/timePositionNaut miles runAvg speedWind from/ knotsBaromVisibWave heightAir tempDewpointWater temp
2017-Aug-22 19:46N 18°34' W 066°16'622.2
2017-Aug-22 19:31N 18°32' W 066°10'611.0
2017-Aug-22 19:00N 18°27' W 066°07'1 1.0
2017-Aug-22 18:29N 18°28' W 066°07'0 0.0
2017-Aug-22 17:59N 18°28' W 066°07'0 0.0
2017-Aug-22 17:29N 18°28' W 066°07'0 0.0
2017-Aug-22 16:59N 18°28' W 066°07'0 0.0
2017-Aug-22 16:26N 18°28' W 066°07'0 0.0
2017-Aug-22 15:56N 18°28' W 066°07'0 0.0
2017-Aug-22 15:29N 18°28' W 066°07'0 0.0
2017-Aug-22 14:59N 18°28' W 066°07'0 0.0
2017-Aug-22 14:28N 18°28' W 066°07'0 0.0
2017-Aug-22 13:58N 18°28' W 066°07'0 0.0
2017-Aug-22 13:28N 18°28' W 066°07'0 0.0
2017-Aug-22 13:00N 18°28' W 066°07'0 0.0
2017-Aug-22 12:30N 18°28' W 066°07'0 0.0
2017-Aug-22 12:00N 18°28' W 066°07'0 0.0
2017-Aug-22 11:30N 18°28' W 066°07'0 0.0
2017-Aug-22 11:00N 18°28' W 066°07'0 0.7
2017-Aug-22 10:30N 18°27' W 066°07'3 6.6
2017-Aug-22 10:00N 18°31' W 066°08'714.1
2017-Aug-22 09:30N 18°32' W 066°00'917.2
2017-Aug-22 09:00N 18°32' W 065°51'5417.3
2017-Aug-22 05:52N 18°13' W 064°58'718.4
2017-Aug-22 05:31N 18°12' W 064°51'1217.9
2017-Aug-22 04:52N 18°11' W 064°39'7018.5
2017-Aug-22 01:05N 18°02' W 063°25'220.8
2017-Aug-22 00:59N 18°02' W 063°23'1220.7
2017-Aug-22 00:24N 18°01' W 063°11'715.9
2017-Aug-21 23:56N 18°00' W 063°03'1 1.1
2017-Aug-21 23:25N 18°01' W 063°03'0 0.0
2017-Aug-21 22:37N 18°01' W 063°03'0 0.0
2017-Aug-21 21:25N 18°01' W 063°03'0 0.0
2017-Aug-21 19:01N 18°01' W 063°03'0 0.0
2017-Aug-21 18:43N 18°01' W 063°03'0 0.0
2017-Aug-21 16:25N 18°01' W 063°03'0 0.4
2017-Aug-21 15:47N 18°01' W 063°03'2 6.4
2017-Aug-21 15:30N 18°00' W 063°05'714.1
2017-Aug-21 15:01N 18°01' W 063°12'815.9
2017-Aug-21 14:30N 18°07' W 063°18'918.6
2017-Aug-21 14:00N 18°14' W 063°24'1020.2
2017-Aug-21 13:30N 18°23' W 063°28'3520.4
2017-Aug-21 11:48N 18°58' W 063°33'920.4
2017-Aug-21 11:23N 19°06' W 063°33'  
2017-Aug-18 03:31N 39°08' W 072°15'118.7
2017-Aug-18 03:28N 39°09' W 072°16'918.5
2017-Aug-18 03:00N 39°15' W 072°24'2618.6
2017-Aug-18 01:35N 39°35' W 072°47'118.7
2017-Aug-18 01:30N 39°36' W 072°48'918.6
2017-Aug-18 01:00N 39°42' W 072°57'919.0
2017-Aug-18 00:31N 39°49' W 073°05'918.7
2017-Aug-18 00:00N 39°56' W 073°14'918.4
2017-Aug-17 23:30N 40°02' W 073°22'918.2
2017-Aug-17 23:00N 40°09' W 073°30'1317.8
2017-Aug-17 22:15N 40°20' W 073°41'416.8
2017-Aug-17 22:00N 40°23' W 073°45'713.1
2017-Aug-17 21:30N 40°27' W 073°51'815.6
2017-Aug-17 21:01N 40°31' W 073°60'713.9
2017-Aug-17 20:30N 40°37' W 074°03'2 4.4
2017-Aug-17 19:56N 40°40' W 074°04'0 0.0
2017-Aug-17 19:26N 40°40' W 074°04'0 0.0
2017-Aug-17 18:56N 40°40' W 074°04'0 0.0
2017-Aug-17 18:26N 40°40' W 074°04'0 0.0
2017-Aug-17 17:56N 40°40' W 074°04'0 0.0
2017-Aug-17 17:26N 40°40' W 074°04'0 0.0
2017-Aug-17 16:56N 40°40' W 074°04'0 0.0
2017-Aug-17 16:26N 40°40' W 074°04'0 0.0
2017-Aug-17 15:56N 40°40' W 074°04'0 0.0
2017-Aug-17 15:26N 40°40' W 074°04'0 0.0
2017-Aug-17 14:56N 40°40' W 074°04'0 0.0
2017-Aug-17 14:26N 40°40' W 074°04'0 0.0
2017-Aug-17 13:56N 40°40' W 074°04'0 0.0
2017-Aug-17 13:26N 40°40' W 074°04'0 0.0
2017-Aug-17 12:56N 40°40' W 074°04'0 0.0
2017-Aug-17 12:26N 40°40' W 074°04'0 0.0
2017-Aug-17 11:56N 40°40' W 074°04'0 0.0
2017-Aug-17 11:26N 40°40' W 074°04'0 0.0
2017-Aug-17 11:00N 40°40' W 074°04'1 1.6
2017-Aug-17 10:30N 40°39' W 074°03'713.2
2017-Aug-17 10:00N 40°33' W 074°02'816.3
2017-Aug-17 09:31N 40°28' W 073°53'612.9
2017-Aug-17 09:00N 40°25' W 073°45'816.9
2017-Aug-17 08:30N 40°20' W 073°36'917.0
2017-Aug-17 08:00N 40°15' W 073°27'1020.3
2017-Aug-17 07:30N 40°09' W 073°17'1020.4
2017-Aug-17 07:01N 40°01' W 073°09'1021.0
2017-Aug-17 06:31N 39°51' W 073°04'1020.8
2017-Aug-17 06:01N 39°41' W 072°59'1020.7
2017-Aug-17 05:31N 39°32' W 072°54'1121.0
2017-Aug-17 05:00N 39°22' W 072°48'1121.2
2017-Aug-17 04:31N 39°12' W 072°43'1020.9
2017-Aug-17 04:01N 39°03' W 072°38'1120.9
2017-Aug-17 03:30N 38°53' W 072°32'1021.0
2017-Aug-17 03:00N 38°44' W 072°27'1223.1
2017-Aug-17 02:30N 38°33' W 072°21'  
2017-Aug-12 21:20N 40°27' W 073°49'514.8
2017-Aug-12 21:00N 40°29' W 073°55'816.0
2017-Aug-12 20:30N 40°35' W 074°02'510.1
2017-Aug-12 20:00N 40°40' W 074°04'  

Dump ship's entire track history